sensor_id;sensor_type;location;lat;lon;timestamp;pressure;altitude;pressure_sealevel;temperature;humidity
68965;BME280;56017;48.680;8.998;2023-05-02T00:01:04;96800;;;9.1;78
68965;BME280;56017;48.680;8.998;2023-05-02T00:03:28;96800;;;9;78
68965;BME280;56017;48.680;8.998;2023-05-02T00:06:06;96800;;;9;78
68965;BME280;56017;48.680;8.998;2023-05-02T00:08:30;96800;;;8.9;78
68965;BME280;56017;48.680;8.998;2023-05-02T00:11:08;96800;;;8.9;78
68965;BME280;56017;48.680;8.998;2023-05-02T00:13:32;96800;;;8.7;78.5
68965;BME280;56017;48.680;8.998;2023-05-02T00:16:10;96800;;;8.7;79
68965;BME280;56017;48.680;8.998;2023-05-02T00:18:34;96800;;;8.7;78.5
68965;BME280;56017;48.680;8.998;2023-05-02T00:23:36;96800;;;8.5;78.5
68965;BME280;56017;48.680;8.998;2023-05-02T00:26:14;96800;;;8.5;78.5
68965;BME280;56017;48.680;8.998;2023-05-02T00:28:38;96800;;;8.5;78.5
68965;BME280;56017;48.680;8.998;2023-05-02T00:31:16;96800;;;8.5;78.5
68965;BME280;56017;48.680;8.998;2023-05-02T00:33:40;96800;;;8.4;78.5
68965;BME280;56017;48.680;8.998;2023-05-02T00:36:18;96800;;;8.5;78.5
68965;BME280;56017;48.680;8.998;2023-05-02T00:38:42;96800;;;8.5;78.5
68965;BME280;56017;48.680;8.998;2023-05-02T00:41:20;96800;;;8.5;78.5
68965;BME280;56017;48.680;8.998;2023-05-02T00:43:44;96810;;;8.5;78.5
68965;BME280;56017;48.680;8.998;2023-05-02T00:46:21;96810;;;8.5;78.5
68965;BME280;56017;48.680;8.998;2023-05-02T00:48:46;96810;;;8.5;78.5
68965;BME280;56017;48.680;8.998;2023-05-02T00:51:23;96810;;;8.5;78.5
68965;BME280;56017;48.680;8.998;2023-05-02T00:53:48;96810;;;8.4;78
68965;BME280;56017;48.680;8.998;2023-05-02T00:56:26;96810;;;8.3;78
68965;BME280;56017;48.680;8.998;2023-05-02T01:04:03;96820;;;8.1;78.5
68965;BME280;56017;48.680;8.998;2023-05-02T01:08:59;96820;;;8.1;78.5
68965;BME280;56017;48.680;8.998;2023-05-02T01:11:34;96820;;;8.2;78.5
68965;BME280;56017;48.680;8.998;2023-05-02T01:13:56;96820;;;8.2;78.5
68965;BME280;56017;48.680;8.998;2023-05-02T01:16:33;96820;;;8.3;78.5
68965;BME280;56017;48.680;8.998;2023-05-02T01:18:57;96820;;;8.3;78.5
68965;BME280;56017;48.680;8.998;2023-05-02T01:21:35;96820;;;8.3;78.5
68965;BME280;56017;48.680;8.998;2023-05-02T01:24:11;96820;;;8.3;78.5
68965;BME280;56017;48.680;8.998;2023-05-02T01:26:42;96820;;;8.3;78.5
68965;BME280;56017;48.680;8.998;2023-05-02T01:29:02;96820;;;8.4;78
68965;BME280;56017;48.680;8.998;2023-05-02T01:31:34;96820;;;8.3;78
68965;BME280;56017;48.680;8.998;2023-05-02T01:34:04;96820;;;8.2;78
68965;BME280;56017;48.680;8.998;2023-05-02T01:36:41;96820;;;8.2;78.5
68965;BME280;56017;48.680;8.998;2023-05-02T01:39:05;96820;;;8.1;78.5
68965;BME280;56017;48.680;8.998;2023-05-02T01:41:43;96820;;;8;78.5
68965;BME280;56017;48.680;8.998;2023-05-02T01:44:07;96820;;;8;78.5
68965;BME280;56017;48.680;8.998;2023-05-02T01:46:45;96820;;;8;78.5
68965;BME280;56017;48.680;8.998;2023-05-02T01:49:09;96820;;;7.9;78.5
68965;BME280;56017;48.680;8.998;2023-05-02T01:54:12;96820;;;7.9;78.5
68965;BME280;56017;48.680;8.998;2023-05-02T01:56:49;96820;;;7.9;78.5
68965;BME280;56017;48.680;8.998;2023-05-02T01:59:14;96820;;;7.9;78.5
68965;BME280;56017;48.680;8.998;2023-05-02T02:01:51;96820;;;7.9;78.5
68965;BME280;56017;48.680;8.998;2023-05-02T02:04:15;96820;;;7.9;78.5
68965;BME280;56017;48.680;8.998;2023-05-02T02:06:54;96820;;;7.8;78.5
68965;BME280;56017;48.680;8.998;2023-05-02T02:09:17;96820;;;7.8;78.5
68965;BME280;56017;48.680;8.998;2023-05-02T02:12:01;96820;;;7.7;78.5
68965;BME280;56017;48.680;8.998;2023-05-02T02:14:20;96820;;;7.7;78.5
68965;BME280;56017;48.680;8.998;2023-05-02T02:19:28;96840;;;7.7;79
68965;BME280;56017;48.680;8.998;2023-05-02T02:21:52;96840;;;7.8;79
68965;BME280;56017;48.680;8.998;2023-05-02T02:24:23;96840;;;7.8;78.5
68965;BME280;56017;48.680;8.998;2023-05-02T02:27:00;96840;;;7.8;78.5
68965;BME280;56017;48.680;8.998;2023-05-02T02:29:24;96850;;;7.9;78.5
68965;BME280;56017;48.680;8.998;2023-05-02T02:32:02;96850;;;7.8;78.5
68965;BME280;56017;48.680;8.998;2023-05-02T02:34:27;96850;;;7.7;78.5
68965;BME280;56017;48.680;8.998;2023-05-02T02:37:21;96850;;;7.6;78.5
68965;BME280;56017;48.680;8.998;2023-05-02T02:44:34;96860;;;7.6;78.5
68965;BME280;56017;48.680;8.998;2023-05-02T02:47:09;96860;;;7.6;78.5
68965;BME280;56017;48.680;8.998;2023-05-02T02:49:37;96870;;;7.6;78.5
68965;BME280;56017;48.680;8.998;2023-05-02T02:52:14;96860;;;7.6;78.5
68965;BME280;56017;48.680;8.998;2023-05-02T02:54:38;96860;;;7.6;78
68965;BME280;56017;48.680;8.998;2023-05-02T02:57:17;96870;;;7.4;78.5
68965;BME280;56017;48.680;8.998;2023-05-02T02:59:37;96870;;;7.3;78.5
68965;BME280;56017;48.680;8.998;2023-05-02T03:04:39;96880;;;7.4;78.5
68965;BME280;56017;48.680;8.998;2023-05-02T03:12:12;96900;;;7.7;78.5
68965;BME280;56017;48.680;8.998;2023-05-02T03:14:42;96900;;;7.8;78.5
68965;BME280;56017;48.680;8.998;2023-05-02T03:19:44;96900;;;7.9;78
68965;BME280;56017;48.680;8.998;2023-05-02T03:22:22;96910;;;7.9;78
68965;BME280;56017;48.680;8.998;2023-05-02T03:24:53;96900;;;7.9;78
68965;BME280;56017;48.680;8.998;2023-05-02T03:27:24;96910;;;7.9;78
68965;BME280;56017;48.680;8.998;2023-05-02T03:29:48;96910;;;8;78.5
68965;BME280;56017;48.680;8.998;2023-05-02T03:32:25;96910;;;8;78.5
68965;BME280;56017;48.680;8.998;2023-05-02T03:34:57;96910;;;8.1;78.5
68965;BME280;56017;48.680;8.998;2023-05-02T03:37:28;96910;;;8.2;78
68965;BME280;56017;48.680;8.998;2023-05-02T03:39:52;96920;;;8.2;78
68965;BME280;56017;48.680;8.998;2023-05-02T03:44:54;96920;;;8.3;78
68965;BME280;56017;48.680;8.998;2023-05-02T03:47:31;96930;;;8.4;78
68965;BME280;56017;48.680;8.998;2023-05-02T03:50:02;96930;;;8.4;78
68965;BME280;56017;48.680;8.998;2023-05-02T03:57:34;96940;;;8.5;78
68965;BME280;56017;48.680;8.998;2023-05-02T04:05:01;96950;;;8.6;78
68965;BME280;56017;48.680;8.998;2023-05-02T04:07:39;96950;;;8.7;78
68965;BME280;56017;48.680;8.998;2023-05-02T04:12:41;96950;;;8.9;77.5
68965;BME280;56017;48.680;8.998;2023-05-02T04:15:12;96960;;;8.9;77.5
68965;BME280;56017;48.680;8.998;2023-05-02T04:17:42;96960;;;9;77.5
68965;BME280;56017;48.680;8.998;2023-05-02T04:20:07;96970;;;9.1;77.5
68965;BME280;56017;48.680;8.998;2023-05-02T04:22:45;96960;;;9.1;77.5
68965;BME280;56017;48.680;8.998;2023-05-02T04:25:09;96960;;;9.2;77.5
68965;BME280;56017;48.680;8.998;2023-05-02T04:27:46;96970;;;9.2;77.5
68965;BME280;56017;48.680;8.998;2023-05-02T04:30:10;96970;;;9.3;77.5
68965;BME280;56017;48.680;8.998;2023-05-02T04:37:50;96970;;;9.3;77.5
68965;BME280;56017;48.680;8.998;2023-05-02T04:40:14;96960;;;9.3;77.5
68965;BME280;56017;48.680;8.998;2023-05-02T04:42:52;96970;;;9.4;77.5
68965;BME280;56017;48.680;8.998;2023-05-02T04:45:24;96970;;;9.5;77.5
68965;BME280;56017;48.680;8.998;2023-05-02T04:47:54;96980;;;9.6;77.5
68965;BME280;56017;48.680;8.998;2023-05-02T04:50:18;96970;;;9.7;77.5
68965;BME280;56017;48.680;8.998;2023-05-02T04:55:27;96970;;;10;77
68965;BME280;56017;48.680;8.998;2023-05-02T05:00:23;96970;;;10.1;77
68965;BME280;56017;48.680;8.998;2023-05-02T05:03:00;96970;;;10.1;77
68965;BME280;56017;48.680;8.998;2023-05-02T05:05:25;96980;;;10.2;77
68965;BME280;56017;48.680;8.998;2023-05-02T05:08:02;96980;;;10.3;77
68965;BME280;56017;48.680;8.998;2023-05-02T05:10:26;96980;;;10.4;77
68965;BME280;56017;48.680;8.998;2023-05-02T05:13:04;96990;;;10.5;77
68965;BME280;56017;48.680;8.998;2023-05-02T05:18:05;96990;;;10.5;77.5
68965;BME280;56017;48.680;8.998;2023-05-02T05:25:32;97000;;;10.7;77
68965;BME280;56017;48.680;8.998;2023-05-02T05:28:09;97010;;;10.7;77
68965;BME280;56017;48.680;8.998;2023-05-02T05:30:34;97030;;;10.5;77.5
68965;BME280;56017;48.680;8.998;2023-05-02T05:33:11;97030;;;10.4;78
68965;BME280;56017;48.680;8.998;2023-05-02T05:35:36;97040;;;10.4;78
68965;BME280;56017;48.680;8.998;2023-05-02T05:38:13;97040;;;10.6;78
68965;BME280;56017;48.680;8.998;2023-05-02T05:40:38;97040;;;10.7;77.5
68965;BME280;56017;48.680;8.998;2023-05-02T05:43:15;97040;;;10.9;77.5
68965;BME280;56017;48.680;8.998;2023-05-02T05:45:46;97050;;;11;77
68965;BME280;56017;48.680;8.998;2023-05-02T05:48:17;97050;;;10.9;77.5
68965;BME280;56017;48.680;8.998;2023-05-02T05:50:41;97050;;;10.9;78
68965;BME280;56017;48.680;8.998;2023-05-02T05:53:19;97050;;;11;77.5
68965;BME280;56017;48.680;8.998;2023-05-02T05:55:44;97050;;;11;77.5
68965;BME280;56017;48.680;8.998;2023-05-02T05:58:21;97050;;;11.1;77
68965;BME280;56017;48.680;8.998;2023-05-02T06:00:46;97050;;;11.1;77
68965;BME280;56017;48.680;8.998;2023-05-02T06:03:23;97060;;;11.1;77.5
68965;BME280;56017;48.680;8.998;2023-05-02T06:05:48;97060;;;11;77.5
68965;BME280;56017;48.680;8.998;2023-05-02T06:08:22;97060;;;11.1;78
68965;BME280;56017;48.680;8.998;2023-05-02T06:10:49;97070;;;11;78
68965;BME280;56017;48.680;8.998;2023-05-02T06:13:27;97070;;;11.1;78
68965;BME280;56017;48.680;8.998;2023-05-02T06:15:51;97070;;;11.2;77.5
68965;BME280;56017;48.680;8.998;2023-05-02T06:18:29;97070;;;11.3;77.5
68965;BME280;56017;48.680;8.998;2023-05-02T06:21:04;97080;;;11.3;77.5
68965;BME280;56017;48.680;8.998;2023-05-02T06:23:31;97080;;;11.1;78
68965;BME280;56017;48.680;8.998;2023-05-02T06:26:05;97080;;;11.1;78
68965;BME280;56017;48.680;8.998;2023-05-02T06:28:33;97090;;;11.1;78
68965;BME280;56017;48.680;8.998;2023-05-02T06:30:58;97090;;;11.3;78
68965;BME280;56017;48.680;8.998;2023-05-02T06:33:35;97090;;;11.4;77.5
68965;BME280;56017;48.680;8.998;2023-05-02T06:36:00;97090;;;11.4;78
68965;BME280;56017;48.680;8.998;2023-05-02T06:38:36;97100;;;11.5;78
68965;BME280;56017;48.680;8.998;2023-05-02T06:43:38;97100;;;11.5;77.5
68965;BME280;56017;48.680;8.998;2023-05-02T06:46:14;97110;;;11.5;78
68965;BME280;56017;48.680;8.998;2023-05-02T06:53:42;97110;;;11.6;78
68965;BME280;56017;48.680;8.998;2023-05-02T06:58:44;97120;;;11.7;78
68965;BME280;56017;48.680;8.998;2023-05-02T07:01:15;97120;;;11.6;78
68965;BME280;56017;48.680;8.998;2023-05-02T07:06:12;97120;;;11.5;78.5
68965;BME280;56017;48.680;8.998;2023-05-02T07:08:48;97130;;;11.4;78.5
68965;BME280;56017;48.680;8.998;2023-05-02T07:18:52;97150;;;11.5;79
68965;BME280;56017;48.680;8.998;2023-05-02T07:21:23;97140;;;11.4;79
68965;BME280;56017;48.680;8.998;2023-05-02T07:26:19;97150;;;11.5;79
68965;BME280;56017;48.680;8.998;2023-05-02T07:28:56;97150;;;11.6;79
68965;BME280;56017;48.680;8.998;2023-05-02T07:33:58;97150;;;11.5;79
68965;BME280;56017;48.680;8.998;2023-05-02T07:46:26;97150;;;12;79
68965;BME280;56017;48.680;8.998;2023-05-02T07:54:20;97160;;;12.7;78.5
68965;BME280;56017;48.680;8.998;2023-05-02T07:56:37;97160;;;12.6;78.5
68965;BME280;56017;48.680;8.998;2023-05-02T08:01:33;97160;;;12.5;79
68965;BME280;56017;48.680;8.998;2023-05-02T08:09:05;97170;;;12.9;78.5
68965;BME280;56017;48.680;8.998;2023-05-02T08:11:41;97180;;;12.8;78.5
68965;BME280;56017;48.680;8.998;2023-05-02T08:19:08;97190;;;13;78
68965;BME280;56017;48.680;8.998;2023-05-02T08:24:10;97190;;;12.8;79
68965;BME280;56017;48.680;8.998;2023-05-02T08:29:18;97190;;;12.9;79
68965;BME280;56017;48.680;8.998;2023-05-02T08:34:19;97200;;;13.3;79
68965;BME280;56017;48.680;8.998;2023-05-02T08:39:15;97190;;;13.4;79
68965;BME280;56017;48.680;8.998;2023-05-02T08:44:17;97190;;;13.5;78.5
68965;BME280;56017;48.680;8.998;2023-05-02T08:49:18;97200;;;13.3;78.5
68965;BME280;56017;48.680;8.998;2023-05-02T08:54:20;97200;;;13.1;79
68965;BME280;56017;48.680;8.998;2023-05-02T08:56:56;97190;;;13.4;79
68965;BME280;56017;48.680;8.998;2023-05-02T08:59:22;97190;;;13.6;79
68965;BME280;56017;48.680;8.998;2023-05-02T09:09:26;97200;;;14.4;78.5
68965;BME280;56017;48.680;8.998;2023-05-02T09:14:28;97210;;;14.7;78
68965;BME280;56017;48.680;8.998;2023-05-02T09:24:32;97220;;;14;79
68965;BME280;56017;48.680;8.998;2023-05-02T09:29:34;97220;;;13.5;79
68965;BME280;56017;48.680;8.998;2023-05-02T09:34:36;97210;;;13.8;79.5
68965;BME280;56017;48.680;8.998;2023-05-02T09:42:09;97210;;;14.1;78.5
68965;BME280;56017;48.680;8.998;2023-05-02T09:44:40;97210;;;14.1;79
68965;BME280;56017;48.680;8.998;2023-05-02T09:49:42;97220;;;14.8;79
68965;BME280;56017;48.680;8.998;2023-05-02T09:54:44;97210;;;15.8;78.5
68965;BME280;56017;48.680;8.998;2023-05-02T09:59:54;97210;;;17.1;77
68965;BME280;56017;48.680;8.998;2023-05-02T10:07:19;97210;;;17.3;76.5
68965;BME280;56017;48.680;8.998;2023-05-02T10:09:49;97210;;;17.1;76.5
68965;BME280;56017;48.680;8.998;2023-05-02T10:19:59;97220;;;16.9;76.5
68965;BME280;56017;48.680;8.998;2023-05-02T10:27:28;97220;;;18.1;77
68965;BME280;56017;48.680;8.998;2023-05-02T10:29:57;97210;;;17.8;76
68965;BME280;56017;48.680;8.998;2023-05-02T10:35:03;97210;;;19;76.5
68965;BME280;56017;48.680;8.998;2023-05-02T10:40:01;97210;;;20.2;74.5
68965;BME280;56017;48.680;8.998;2023-05-02T10:50:05;97200;;;19.5;76.5
68965;BME280;56017;48.680;8.998;2023-05-02T10:52:37;97190;;;19.8;74
68965;BME280;56017;48.680;8.998;2023-05-02T10:55:22;97190;;;19.2;73
68965;BME280;56017;48.680;8.998;2023-05-02T11:00:23;97190;;;17.8;75.5
68965;BME280;56017;48.680;8.998;2023-05-02T11:02:49;97190;;;17.6;76
68965;BME280;56017;48.680;8.998;2023-05-02T11:05:11;97200;;;17.2;76.5
68965;BME280;56017;48.680;8.998;2023-05-02T11:07:42;97190;;;17.2;77
68965;BME280;56017;48.680;8.998;2023-05-02T11:20:17;97190;;;18;76.5
68965;BME280;56017;48.680;8.998;2023-05-02T11:25:35;97200;;;17.9;76.5
68965;BME280;56017;48.680;8.998;2023-05-02T11:33:10;97190;;;17.7;77.5
68965;BME280;56017;48.680;8.998;2023-05-02T11:40:25;97190;;;18.4;76.5
68965;BME280;56017;48.680;8.998;2023-05-02T11:55:30;97180;;;18.9;75.5
68965;BME280;56017;48.680;8.998;2023-05-02T12:05:41;97180;;;19.4;76.5
68965;BME280;56017;48.680;8.998;2023-05-02T12:10:36;97180;;;19.5;75.5
68965;BME280;56017;48.680;8.998;2023-05-02T12:13:08;97180;;;19.6;76
68965;BME280;56017;48.680;8.998;2023-05-02T12:15:38;97180;;;19.6;76
68965;BME280;56017;48.680;8.998;2023-05-02T12:23:11;97180;;;18.3;76.5
68965;BME280;56017;48.680;8.998;2023-05-02T12:35:46;97200;;;18.8;77
68965;BME280;56017;48.680;8.998;2023-05-02T12:45:49;97190;;;20;75.5
68965;BME280;56017;48.680;8.998;2023-05-02T12:48:25;97190;;;20;75.5
68965;BME280;56017;48.680;8.998;2023-05-02T12:50:51;97190;;;20.1;76
68965;BME280;56017;48.680;8.998;2023-05-02T12:56:01;97190;;;20.8;75.5
68965;BME280;56017;48.680;8.998;2023-05-02T12:58:23;97200;;;21.1;74.5
68965;BME280;56017;48.680;8.998;2023-05-02T13:10:59;97190;;;21.6;74.5
68965;BME280;56017;48.680;8.998;2023-05-02T13:16:07;97190;;;23;73
68965;BME280;56017;48.680;8.998;2023-05-02T13:28:35;97190;;;21.7;73.5
68965;BME280;56017;48.680;8.998;2023-05-02T13:36:08;97180;;;22.4;74
68965;BME280;56017;48.680;8.998;2023-05-02T13:41:11;97180;;;22.3;73.5
68965;BME280;56017;48.680;8.998;2023-05-02T13:46:18;97170;;;22;74.5
68965;BME280;56017;48.680;8.998;2023-05-02T13:48:49;97170;;;21.9;74.5
68965;BME280;56017;48.680;8.998;2023-05-02T13:51:13;97180;;;22;74.5
68965;BME280;56017;48.680;8.998;2023-05-02T13:53:44;97180;;;22.2;74
68965;BME280;56017;48.680;8.998;2023-05-02T14:01:17;97180;;;21.1;75
68965;BME280;56017;48.680;8.998;2023-05-02T14:03:48;97180;;;20.2;75.5
68965;BME280;56017;48.680;8.998;2023-05-02T14:06:19;97170;;;19.2;77
68965;BME280;56017;48.680;8.998;2023-05-02T14:08:56;97190;;;18.8;78.5
68965;BME280;56017;48.680;8.998;2023-05-02T14:13:59;97190;;;18;79
68965;BME280;56017;48.680;8.998;2023-05-02T14:18:54;97190;;;17.8;79
68965;BME280;56017;48.680;8.998;2023-05-02T14:21:31;97190;;;18.5;79
68965;BME280;56017;48.680;8.998;2023-05-02T14:26:27;97190;;;19.7;77.5
68965;BME280;56017;48.680;8.998;2023-05-02T14:28:58;97190;;;19.6;78
68965;BME280;56017;48.680;8.998;2023-05-02T14:34:06;97190;;;19.5;78
68965;BME280;56017;48.680;8.998;2023-05-02T14:36:31;97190;;;19.2;78
68965;BME280;56017;48.680;8.998;2023-05-02T14:39:01;97190;;;18.9;78
68965;BME280;56017;48.680;8.998;2023-05-02T14:44:03;97200;;;18.7;78.5
68965;BME280;56017;48.680;8.998;2023-05-02T14:49:05;97200;;;17.8;79
68965;BME280;56017;48.680;8.998;2023-05-02T14:51:37;97200;;;17.5;79.5
68965;BME280;56017;48.680;8.998;2023-05-02T14:54:07;97200;;;17.4;79.5
68965;BME280;56017;48.680;8.998;2023-05-02T14:56:45;97200;;;17.4;79.5
68965;BME280;56017;48.680;8.998;2023-05-02T14:59:09;97200;;;17.7;79.5
68965;BME280;56017;48.680;8.998;2023-05-02T15:01:47;97200;;;18.1;79
68965;BME280;56017;48.680;8.998;2023-05-02T15:04:11;97200;;;18.1;79
68965;BME280;56017;48.680;8.998;2023-05-02T15:09:21;97210;;;18.1;79
68965;BME280;56017;48.680;8.998;2023-05-02T15:14:22;97210;;;18.8;78
68965;BME280;56017;48.680;8.998;2023-05-02T15:19:17;97210;;;18.5;78.5
68965;BME280;56017;48.680;8.998;2023-05-02T15:24:26;97210;;;18.5;78.5
68965;BME280;56017;48.680;8.998;2023-05-02T15:31:58;97200;;;19;78
68965;BME280;56017;48.680;8.998;2023-05-02T15:34:23;97200;;;19.1;77.5
68965;BME280;56017;48.680;8.998;2023-05-02T15:39:31;97210;;;18.8;78.5
68965;BME280;56017;48.680;8.998;2023-05-02T15:44:28;97210;;;19.7;78
68965;BME280;56017;48.680;8.998;2023-05-02T15:49:29;97210;;;19.7;78
68965;BME280;56017;48.680;8.998;2023-05-02T15:54:30;97220;;;19.6;78
68965;BME280;56017;48.680;8.998;2023-05-02T15:57:01;97210;;;19.4;78
68965;BME280;56017;48.680;8.998;2023-05-02T15:59:32;97220;;;19.3;78
68965;BME280;56017;48.680;8.998;2023-05-02T16:04:34;97210;;;19.2;78.5
68965;BME280;56017;48.680;8.998;2023-05-02T16:07:12;97220;;;19.5;78
68965;BME280;56017;48.680;8.998;2023-05-02T16:14:38;97220;;;19.5;77.5
68965;BME280;56017;48.680;8.998;2023-05-02T16:17:09;97210;;;19.9;77.5
68965;BME280;56017;48.680;8.998;2023-05-02T16:19:41;97220;;;20.4;77
68965;BME280;56017;48.680;8.998;2023-05-02T16:22:11;97210;;;20.7;76.5
68965;BME280;56017;48.680;8.998;2023-05-02T16:24:42;97220;;;21;77
68965;BME280;56017;48.680;8.998;2023-05-02T16:29:51;97220;;;21.7;77.5
68965;BME280;56017;48.680;8.998;2023-05-02T16:39:48;97230;;;21.8;79
68965;BME280;56017;48.680;8.998;2023-05-02T16:42:26;97220;;;21.7;80
68965;BME280;56017;48.680;8.998;2023-05-02T16:44:50;97220;;;22;79
68965;BME280;56017;48.680;8.998;2023-05-02T16:54:54;97230;;;20.5;78
68965;BME280;56017;48.680;8.998;2023-05-02T16:57:25;97240;;;19.8;79
68965;BME280;56017;48.680;8.998;2023-05-02T16:59:56;97240;;;19.6;79
68965;BME280;56017;48.680;8.998;2023-05-02T17:02:27;97240;;;19.3;79.5
68965;BME280;56017;48.680;8.998;2023-05-02T17:05:04;97240;;;19;80
68965;BME280;56017;48.680;8.998;2023-05-02T17:07:29;97240;;;19.1;79
68965;BME280;56017;48.680;8.998;2023-05-02T17:09:59;97230;;;19;78.5
68965;BME280;56017;48.680;8.998;2023-05-02T17:12:37;97240;;;18.8;78.5
68965;BME280;56017;48.680;8.998;2023-05-02T17:15:02;97240;;;18.7;79
68965;BME280;56017;48.680;8.998;2023-05-02T17:17:39;97240;;;18.8;78.5
68965;BME280;56017;48.680;8.998;2023-05-02T17:20:04;97240;;;19.1;77.5
68965;BME280;56017;48.680;8.998;2023-05-02T17:22:41;97240;;;19.4;76
68965;BME280;56017;48.680;8.998;2023-05-02T17:25:06;97240;;;19.5;75.5
68965;BME280;56017;48.680;8.998;2023-05-02T17:30:07;97240;;;18.5;76.5
68965;BME280;56017;48.680;8.998;2023-05-02T17:32:38;97250;;;17.8;77.5
68965;BME280;56017;48.680;8.998;2023-05-02T17:35:09;97250;;;17.6;78
68965;BME280;56017;48.680;8.998;2023-05-02T17:37:40;97260;;;17.2;78.5
68965;BME280;56017;48.680;8.998;2023-05-02T17:40:11;97250;;;17;78.5
68965;BME280;56017;48.680;8.998;2023-05-02T17:42:50;97260;;;16.9;78.5
68965;BME280;56017;48.680;8.998;2023-05-02T17:47:44;97270;;;16.7;79
68965;BME280;56017;48.680;8.998;2023-05-02T17:50:16;97270;;;16.6;79
68965;BME280;56017;48.680;8.998;2023-05-02T17:52:46;97270;;;16.4;79
68965;BME280;56017;48.680;8.998;2023-05-02T17:55:17;97270;;;16.4;79
68965;BME280;56017;48.680;8.998;2023-05-02T17:57:48;97270;;;16.2;79
68965;BME280;56017;48.680;8.998;2023-05-02T18:00:20;97270;;;16.1;79.5
68965;BME280;56017;48.680;8.998;2023-05-02T18:02:50;97280;;;16.1;79.5
68965;BME280;56017;48.680;8.998;2023-05-02T18:12:53;97290;;;15.8;78.5
68965;BME280;56017;48.680;8.998;2023-05-02T18:17:55;97300;;;15.7;79
68965;BME280;56017;48.680;8.998;2023-05-02T18:20:26;97310;;;15.6;78.5
68965;BME280;56017;48.680;8.998;2023-05-02T18:25:28;97310;;;15.5;78.5
68965;BME280;56017;48.680;8.998;2023-05-02T18:28:05;97310;;;15.4;78.5
68965;BME280;56017;48.680;8.998;2023-05-02T18:30:30;97320;;;15.3;79
68965;BME280;56017;48.680;8.998;2023-05-02T18:33:07;97320;;;15.3;79
68965;BME280;56017;48.680;8.998;2023-05-02T18:35:32;97320;;;15.2;79
68965;BME280;56017;48.680;8.998;2023-05-02T18:38:04;97330;;;15.2;78.5
68965;BME280;56017;48.680;8.998;2023-05-02T18:40:35;97330;;;15.1;78.5
68965;BME280;56017;48.680;8.998;2023-05-02T18:43:05;97330;;;14.9;78.5
68965;BME280;56017;48.680;8.998;2023-05-02T18:45:36;97330;;;14.8;79
68965;BME280;56017;48.680;8.998;2023-05-02T18:48:07;97340;;;14.8;78.5
68965;BME280;56017;48.680;8.998;2023-05-02T18:50:45;97340;;;14.8;78.5
68965;BME280;56017;48.680;8.998;2023-05-02T19:00:41;97340;;;14.4;78.5
68965;BME280;56017;48.680;8.998;2023-05-02T19:05:43;97350;;;14.4;78.5
68965;BME280;56017;48.680;8.998;2023-05-02T19:08:15;97350;;;14.2;78.5
68965;BME280;56017;48.680;8.998;2023-05-02T19:10:45;97350;;;14.1;78.5
68965;BME280;56017;48.680;8.998;2023-05-02T19:13:16;97360;;;14;78.5
68965;BME280;56017;48.680;8.998;2023-05-02T19:15:47;97360;;;13.9;79
68965;BME280;56017;48.680;8.998;2023-05-02T19:18:18;97360;;;13.9;78.5
68965;BME280;56017;48.680;8.998;2023-05-02T19:20:49;97360;;;13.8;78.5
68965;BME280;56017;48.680;8.998;2023-05-02T19:23:27;97360;;;13.8;78.5
68965;BME280;56017;48.680;8.998;2023-05-02T19:25:51;97370;;;13.7;78.5
68965;BME280;56017;48.680;8.998;2023-05-02T19:28:22;97380;;;13.7;78.5
68965;BME280;56017;48.680;8.998;2023-05-02T19:30:53;97380;;;13.5;78.5
68965;BME280;56017;48.680;8.998;2023-05-02T19:35:55;97390;;;13.3;78.5
68965;BME280;56017;48.680;8.998;2023-05-02T19:38:26;97390;;;13.2;78.5
68965;BME280;56017;48.680;8.998;2023-05-02T19:40:57;97390;;;13.1;78.5
68965;BME280;56017;48.680;8.998;2023-05-02T19:43:28;97400;;;12.9;78.5
68965;BME280;56017;48.680;8.998;2023-05-02T19:45:59;97400;;;12.8;78.5
68965;BME280;56017;48.680;8.998;2023-05-02T19:48:30;97410;;;12.7;78.5
68965;BME280;56017;48.680;8.998;2023-05-02T19:51:01;97410;;;12.6;78.5
68965;BME280;56017;48.680;8.998;2023-05-02T19:53:33;97410;;;12.6;78.5
68965;BME280;56017;48.680;8.998;2023-05-02T19:56:03;97410;;;12.5;78.5
68965;BME280;56017;48.680;8.998;2023-05-02T19:58:34;97410;;;12.4;79
68965;BME280;56017;48.680;8.998;2023-05-02T20:01:05;97420;;;12.4;78.5
68965;BME280;56017;48.680;8.998;2023-05-02T20:03:36;97420;;;12.3;78.5
68965;BME280;56017;48.680;8.998;2023-05-02T20:06:07;97420;;;12.3;79
68965;BME280;56017;48.680;8.998;2023-05-02T20:08:38;97420;;;12.2;78.5
68965;BME280;56017;48.680;8.998;2023-05-02T20:11:09;97420;;;12.2;78.5
68965;BME280;56017;48.680;8.998;2023-05-02T20:13:46;97430;;;12.1;78.5
68965;BME280;56017;48.680;8.998;2023-05-02T20:16:11;97430;;;12.1;78.5
68965;BME280;56017;48.680;8.998;2023-05-02T20:21:12;97440;;;11.9;78.5
68965;BME280;56017;48.680;8.998;2023-05-02T20:23:43;97450;;;11.8;78.5
68965;BME280;56017;48.680;8.998;2023-05-02T20:26:14;97440;;;11.7;78.5
68965;BME280;56017;48.680;8.998;2023-05-02T20:28:52;97450;;;11.7;78.5
68965;BME280;56017;48.680;8.998;2023-05-02T20:31:16;97450;;;11.6;78.5
68965;BME280;56017;48.680;8.998;2023-05-02T20:33:47;97450;;;11.6;79
68965;BME280;56017;48.680;8.998;2023-05-02T20:36:18;97450;;;11.7;78.5
68965;BME280;56017;48.680;8.998;2023-05-02T20:41:20;97450;;;11.5;78
68965;BME280;56017;48.680;8.998;2023-05-02T20:43:52;97460;;;11.4;78.5
68965;BME280;56017;48.680;8.998;2023-05-02T20:46:22;97460;;;11.3;78.5
68965;BME280;56017;48.680;8.998;2023-05-02T20:48:53;97460;;;11.2;78.5
68965;BME280;56017;48.680;8.998;2023-05-02T20:51:25;97460;;;11.2;78.5
68965;BME280;56017;48.680;8.998;2023-05-02T20:53:55;97460;;;11.1;78.5
68965;BME280;56017;48.680;8.998;2023-05-02T20:56:26;97460;;;11.1;78.5
68965;BME280;56017;48.680;8.998;2023-05-02T20:58:57;97450;;;11;78.5
68965;BME280;56017;48.680;8.998;2023-05-02T21:01:28;97450;;;11;79
68965;BME280;56017;48.680;8.998;2023-05-02T21:03:59;97460;;;11;78.5
68965;BME280;56017;48.680;8.998;2023-05-02T21:06:30;97460;;;11;78.5
68965;BME280;56017;48.680;8.998;2023-05-02T21:09:01;97450;;;11;79
68965;BME280;56017;48.680;8.998;2023-05-02T21:11:32;97450;;;11;78.5
68965;BME280;56017;48.680;8.998;2023-05-02T21:14:03;97450;;;11;78.5
68965;BME280;56017;48.680;8.998;2023-05-02T21:16:34;97450;;;11;78.5
68965;BME280;56017;48.680;8.998;2023-05-02T21:19:05;97450;;;11;78.5
68965;BME280;56017;48.680;8.998;2023-05-02T21:21:36;97450;;;10.9;78.5